METAR Data
IDs: Format: Raw Decoded Include TAF

Data at: 0731 UTC 18 Sep 2021

LIEO 180720Z 24010KT CAVOK 24/18 Q1014